sensor_id;sensor_type;location;lat;lon;timestamp;P1;durP1;ratioP1;P2;durP2;ratioP2
19758;SDS011;10038;42.662;23.278;2022-11-27T00:00:11;35.17;;;16.63;;
19758;SDS011;10038;42.662;23.278;2022-11-27T00:02:38;38.92;;;15.35;;
19758;SDS011;10038;42.662;23.278;2022-11-27T00:05:04;36.13;;;16.73;;
19758;SDS011;10038;42.662;23.278;2022-11-27T00:07:31;34.33;;;17.42;;
19758;SDS011;10038;42.662;23.278;2022-11-27T00:09:58;29.23;;;15.30;;
19758;SDS011;10038;42.662;23.278;2022-11-27T00:12:24;22.02;;;11.80;;
19758;SDS011;10038;42.662;23.278;2022-11-27T00:14:52;29.20;;;13.45;;
19758;SDS011;10038;42.662;23.278;2022-11-27T00:17:19;28.48;;;13.18;;
19758;SDS011;10038;42.662;23.278;2022-11-27T00:19:45;22.33;;;11.55;;
19758;SDS011;10038;42.662;23.278;2022-11-27T00:22:12;26.30;;;13.40;;
19758;SDS011;10038;42.662;23.278;2022-11-27T00:24:39;25.23;;;12.32;;
19758;SDS011;10038;42.662;23.278;2022-11-27T00:27:05;24.30;;;12.23;;
19758;SDS011;10038;42.662;23.278;2022-11-27T00:29:32;25.23;;;11.85;;
19758;SDS011;10038;42.662;23.278;2022-11-27T00:32:00;22.27;;;11.52;;
19758;SDS011;10038;42.662;23.278;2022-11-27T00:34:26;26.98;;;13.10;;
19758;SDS011;10038;42.662;23.278;2022-11-27T00:36:53;22.45;;;11.20;;
19758;SDS011;10038;42.662;23.278;2022-11-27T00:39:19;20.80;;;11.40;;
19758;SDS011;10038;42.662;23.278;2022-11-27T00:41:46;24.88;;;12.13;;
19758;SDS011;10038;42.662;23.278;2022-11-27T00:44:12;23.80;;;13.77;;
19758;SDS011;10038;42.662;23.278;2022-11-27T00:46:39;26.15;;;13.95;;
19758;SDS011;10038;42.662;23.278;2022-11-27T00:49:07;33.05;;;15.63;;
19758;SDS011;10038;42.662;23.278;2022-11-27T00:51:35;26.05;;;15.57;;
19758;SDS011;10038;42.662;23.278;2022-11-27T00:54:01;24.83;;;12.75;;
19758;SDS011;10038;42.662;23.278;2022-11-27T00:56:29;22.60;;;11.23;;
19758;SDS011;10038;42.662;23.278;2022-11-27T00:58:55;25.20;;;13.05;;
19758;SDS011;10038;42.662;23.278;2022-11-27T01:01:23;24.95;;;11.32;;
19758;SDS011;10038;42.662;23.278;2022-11-27T01:03:50;25.75;;;11.73;;
19758;SDS011;10038;42.662;23.278;2022-11-27T01:06:18;23.48;;;10.85;;
19758;SDS011;10038;42.662;23.278;2022-11-27T01:08:45;19.55;;;10.25;;
19758;SDS011;10038;42.662;23.278;2022-11-27T01:11:12;21.38;;;12.05;;
19758;SDS011;10038;42.662;23.278;2022-11-27T01:13:39;20.55;;;11.52;;
19758;SDS011;10038;42.662;23.278;2022-11-27T01:16:06;26.52;;;11.35;;
19758;SDS011;10038;42.662;23.278;2022-11-27T01:18:33;25.13;;;11.77;;
19758;SDS011;10038;42.662;23.278;2022-11-27T01:21:00;23.52;;;12.82;;
19758;SDS011;10038;42.662;23.278;2022-11-27T01:23:29;20.13;;;13.02;;
19758;SDS011;10038;42.662;23.278;2022-11-27T01:25:56;32.85;;;14.30;;
19758;SDS011;10038;42.662;23.278;2022-11-27T01:28:22;26.10;;;14.05;;
19758;SDS011;10038;42.662;23.278;2022-11-27T01:30:49;26.13;;;15.65;;
19758;SDS011;10038;42.662;23.278;2022-11-27T01:33:16;34.38;;;16.52;;
19758;SDS011;10038;42.662;23.278;2022-11-27T01:35:42;24.50;;;13.70;;
19758;SDS011;10038;42.662;23.278;2022-11-27T01:38:17;34.78;;;15.18;;
19758;SDS011;10038;42.662;23.278;2022-11-27T01:40:45;26.80;;;14.80;;
19758;SDS011;10038;42.662;23.278;2022-11-27T01:43:12;33.40;;;16.77;;
19758;SDS011;10038;42.662;23.278;2022-11-27T01:45:39;29.88;;;15.80;;
19758;SDS011;10038;42.662;23.278;2022-11-27T01:48:07;31.50;;;15.50;;
19758;SDS011;10038;42.662;23.278;2022-11-27T01:50:36;41.45;;;15.15;;
19758;SDS011;10038;42.662;23.278;2022-11-27T01:53:04;33.30;;;16.50;;
19758;SDS011;10038;42.662;23.278;2022-11-27T01:55:33;31.02;;;16.73;;
19758;SDS011;10038;42.662;23.278;2022-11-27T01:58:03;32.10;;;14.68;;
19758;SDS011;10038;42.662;23.278;2022-11-27T02:00:30;34.85;;;17.23;;
19758;SDS011;10038;42.662;23.278;2022-11-27T02:02:57;31.25;;;17.10;;
19758;SDS011;10038;42.662;23.278;2022-11-27T02:05:24;33.30;;;17.10;;
19758;SDS011;10038;42.662;23.278;2022-11-27T02:07:52;32.03;;;15.93;;
19758;SDS011;10038;42.662;23.278;2022-11-27T02:10:19;34.45;;;17.17;;
19758;SDS011;10038;42.662;23.278;2022-11-27T02:12:49;34.65;;;16.63;;
19758;SDS011;10038;42.662;23.278;2022-11-27T02:15:22;36.45;;;16.45;;
19758;SDS011;10038;42.662;23.278;2022-11-27T02:17:52;29.60;;;15.65;;
19758;SDS011;10038;42.662;23.278;2022-11-27T02:20:31;26.75;;;15.43;;
19758;SDS011;10038;42.662;23.278;2022-11-27T02:23:07;30.35;;;16.13;;
19758;SDS011;10038;42.662;23.278;2022-11-27T02:25:36;28.92;;;13.50;;
19758;SDS011;10038;42.662;23.278;2022-11-27T02:28:15;30.80;;;15.15;;
19758;SDS011;10038;42.662;23.278;2022-11-27T02:30:48;30.98;;;15.05;;
19758;SDS011;10038;42.662;23.278;2022-11-27T02:33:17;30.35;;;16.30;;
19758;SDS011;10038;42.662;23.278;2022-11-27T02:35:46;24.38;;;13.90;;
19758;SDS011;10038;42.662;23.278;2022-11-27T02:38:14;26.92;;;14.27;;
19758;SDS011;10038;42.662;23.278;2022-11-27T02:40:43;30.35;;;14.93;;
19758;SDS011;10038;42.662;23.278;2022-11-27T02:43:11;27.10;;;13.52;;
19758;SDS011;10038;42.662;23.278;2022-11-27T02:45:38;31.02;;;15.90;;
19758;SDS011;10038;42.662;23.278;2022-11-27T02:48:08;26.48;;;13.68;;
19758;SDS011;10038;42.662;23.278;2022-11-27T02:50:36;22.58;;;12.00;;
19758;SDS011;10038;42.662;23.278;2022-11-27T02:53:04;28.15;;;14.60;;
19758;SDS011;10038;42.662;23.278;2022-11-27T02:55:33;25.50;;;12.68;;
19758;SDS011;10038;42.662;23.278;2022-11-27T02:58:02;27.63;;;15.18;;
19758;SDS011;10038;42.662;23.278;2022-11-27T03:00:30;23.88;;;14.32;;
19758;SDS011;10038;42.662;23.278;2022-11-27T03:02:58;30.30;;;14.38;;
19758;SDS011;10038;42.662;23.278;2022-11-27T03:05:27;27.17;;;13.77;;
19758;SDS011;10038;42.662;23.278;2022-11-27T03:07:56;25.05;;;12.85;;
19758;SDS011;10038;42.662;23.278;2022-11-27T03:10:26;30.77;;;15.05;;
19758;SDS011;10038;42.662;23.278;2022-11-27T03:12:54;28.90;;;14.38;;
19758;SDS011;10038;42.662;23.278;2022-11-27T03:15:20;25.85;;;13.55;;
19758;SDS011;10038;42.662;23.278;2022-11-27T03:17:51;26.17;;;13.73;;
19758;SDS011;10038;42.662;23.278;2022-11-27T03:20:19;24.23;;;12.38;;
19758;SDS011;10038;42.662;23.278;2022-11-27T03:22:48;27.27;;;13.13;;
19758;SDS011;10038;42.662;23.278;2022-11-27T03:25:14;29.58;;;13.60;;
19758;SDS011;10038;42.662;23.278;2022-11-27T03:27:42;24.77;;;12.18;;
19758;SDS011;10038;42.662;23.278;2022-11-27T03:30:12;23.42;;;13.88;;
19758;SDS011;10038;42.662;23.278;2022-11-27T03:32:39;28.70;;;14.52;;
19758;SDS011;10038;42.662;23.278;2022-11-27T03:35:07;23.40;;;13.63;;
19758;SDS011;10038;42.662;23.278;2022-11-27T03:37:34;29.73;;;14.77;;
19758;SDS011;10038;42.662;23.278;2022-11-27T03:40:02;24.83;;;12.07;;
19758;SDS011;10038;42.662;23.278;2022-11-27T03:42:29;26.92;;;15.65;;
19758;SDS011;10038;42.662;23.278;2022-11-27T03:45:00;31.42;;;14.27;;
19758;SDS011;10038;42.662;23.278;2022-11-27T03:47:32;29.08;;;13.75;;
19758;SDS011;10038;42.662;23.278;2022-11-27T03:50:04;32.78;;;14.80;;
19758;SDS011;10038;42.662;23.278;2022-11-27T03:52:38;32.47;;;13.20;;
19758;SDS011;10038;42.662;23.278;2022-11-27T03:55:11;28.52;;;13.10;;
19758;SDS011;10038;42.662;23.278;2022-11-27T03:57:40;27.25;;;14.32;;
19758;SDS011;10038;42.662;23.278;2022-11-27T04:00:08;24.67;;;14.25;;
19758;SDS011;10038;42.662;23.278;2022-11-27T04:02:39;25.58;;;13.18;;
19758;SDS011;10038;42.662;23.278;2022-11-27T04:05:06;29.38;;;13.82;;
19758;SDS011;10038;42.662;23.278;2022-11-27T04:07:33;32.03;;;16.67;;
19758;SDS011;10038;42.662;23.278;2022-11-27T04:10:00;26.10;;;13.55;;
19758;SDS011;10038;42.662;23.278;2022-11-27T04:12:28;22.75;;;13.95;;
19758;SDS011;10038;42.662;23.278;2022-11-27T04:14:54;30.08;;;14.48;;
19758;SDS011;10038;42.662;23.278;2022-11-27T04:17:21;30.10;;;14.88;;
19758;SDS011;10038;42.662;23.278;2022-11-27T04:19:47;26.50;;;15.77;;
19758;SDS011;10038;42.662;23.278;2022-11-27T04:22:14;25.05;;;12.75;;
19758;SDS011;10038;42.662;23.278;2022-11-27T04:24:41;26.70;;;13.95;;
19758;SDS011;10038;42.662;23.278;2022-11-27T04:27:07;26.92;;;15.13;;
19758;SDS011;10038;42.662;23.278;2022-11-27T04:29:35;29.25;;;14.23;;
19758;SDS011;10038;42.662;23.278;2022-11-27T04:32:02;27.67;;;15.60;;
19758;SDS011;10038;42.662;23.278;2022-11-27T04:34:28;32.15;;;14.60;;
19758;SDS011;10038;42.662;23.278;2022-11-27T04:36:55;34.17;;;15.82;;
19758;SDS011;10038;42.662;23.278;2022-11-27T04:39:21;31.02;;;13.25;;
19758;SDS011;10038;42.662;23.278;2022-11-27T04:41:48;32.58;;;15.98;;
19758;SDS011;10038;42.662;23.278;2022-11-27T04:44:15;34.13;;;16.73;;
19758;SDS011;10038;42.662;23.278;2022-11-27T04:46:42;37.05;;;16.55;;
19758;SDS011;10038;42.662;23.278;2022-11-27T04:49:09;27.98;;;14.60;;
19758;SDS011;10038;42.662;23.278;2022-11-27T04:51:36;30.65;;;13.77;;
19758;SDS011;10038;42.662;23.278;2022-11-27T04:54:03;33.70;;;14.55;;
19758;SDS011;10038;42.662;23.278;2022-11-27T04:56:29;34.55;;;17.20;;
19758;SDS011;10038;42.662;23.278;2022-11-27T04:58:56;31.90;;;16.85;;
19758;SDS011;10038;42.662;23.278;2022-11-27T05:01:22;31.15;;;15.60;;
19758;SDS011;10038;42.662;23.278;2022-11-27T05:03:50;32.22;;;15.35;;
19758;SDS011;10038;42.662;23.278;2022-11-27T05:06:17;31.85;;;14.52;;
19758;SDS011;10038;42.662;23.278;2022-11-27T05:08:43;32.95;;;14.98;;
19758;SDS011;10038;42.662;23.278;2022-11-27T05:11:10;36.38;;;16.52;;
19758;SDS011;10038;42.662;23.278;2022-11-27T05:13:37;29.13;;;15.00;;
19758;SDS011;10038;42.662;23.278;2022-11-27T05:16:04;32.33;;;15.07;;
19758;SDS011;10038;42.662;23.278;2022-11-27T05:18:31;25.48;;;14.20;;
19758;SDS011;10038;42.662;23.278;2022-11-27T05:21:00;35.20;;;15.35;;
19758;SDS011;10038;42.662;23.278;2022-11-27T05:23:26;34.00;;;16.25;;
19758;SDS011;10038;42.662;23.278;2022-11-27T05:25:53;36.47;;;15.55;;
19758;SDS011;10038;42.662;23.278;2022-11-27T05:28:20;39.35;;;17.98;;
19758;SDS011;10038;42.662;23.278;2022-11-27T05:30:47;33.28;;;16.48;;
19758;SDS011;10038;42.662;23.278;2022-11-27T05:33:13;35.53;;;16.67;;
19758;SDS011;10038;42.662;23.278;2022-11-27T05:35:40;31.48;;;15.48;;
19758;SDS011;10038;42.662;23.278;2022-11-27T05:38:09;28.05;;;14.25;;
19758;SDS011;10038;42.662;23.278;2022-11-27T05:40:36;36.10;;;15.27;;
19758;SDS011;10038;42.662;23.278;2022-11-27T05:43:02;29.90;;;14.95;;
19758;SDS011;10038;42.662;23.278;2022-11-27T05:45:29;31.05;;;16.13;;
19758;SDS011;10038;42.662;23.278;2022-11-27T05:47:56;35.78;;;15.80;;
19758;SDS011;10038;42.662;23.278;2022-11-27T05:50:22;38.08;;;17.23;;
19758;SDS011;10038;42.662;23.278;2022-11-27T05:52:49;39.45;;;19.33;;
19758;SDS011;10038;42.662;23.278;2022-11-27T05:55:17;36.70;;;17.13;;
19758;SDS011;10038;42.662;23.278;2022-11-27T05:57:44;37.35;;;16.67;;
19758;SDS011;10038;42.662;23.278;2022-11-27T06:00:11;41.28;;;19.08;;
19758;SDS011;10038;42.662;23.278;2022-11-27T06:02:38;42.33;;;18.10;;
19758;SDS011;10038;42.662;23.278;2022-11-27T06:05:05;36.88;;;15.68;;
19758;SDS011;10038;42.662;23.278;2022-11-27T06:07:31;37.03;;;17.17;;
19758;SDS011;10038;42.662;23.278;2022-11-27T06:09:58;47.53;;;17.25;;
19758;SDS011;10038;42.662;23.278;2022-11-27T06:12:26;41.60;;;16.45;;
19758;SDS011;10038;42.662;23.278;2022-11-27T06:14:53;40.47;;;19.05;;
19758;SDS011;10038;42.662;23.278;2022-11-27T06:17:19;40.22;;;17.83;;
19758;SDS011;10038;42.662;23.278;2022-11-27T06:19:46;41.00;;;19.75;;
19758;SDS011;10038;42.662;23.278;2022-11-27T06:22:12;38.78;;;17.15;;
19758;SDS011;10038;42.662;23.278;2022-11-27T06:24:39;34.72;;;17.10;;
19758;SDS011;10038;42.662;23.278;2022-11-27T06:27:05;46.15;;;19.02;;
19758;SDS011;10038;42.662;23.278;2022-11-27T06:29:33;33.85;;;17.70;;
19758;SDS011;10038;42.662;23.278;2022-11-27T06:32:01;45.95;;;19.40;;
19758;SDS011;10038;42.662;23.278;2022-11-27T06:34:28;37.38;;;17.05;;
19758;SDS011;10038;42.662;23.278;2022-11-27T06:36:54;39.72;;;18.10;;
19758;SDS011;10038;42.662;23.278;2022-11-27T06:39:21;38.40;;;16.55;;
19758;SDS011;10038;42.662;23.278;2022-11-27T06:41:47;29.52;;;15.68;;
19758;SDS011;10038;42.662;23.278;2022-11-27T06:44:14;30.42;;;14.95;;
19758;SDS011;10038;42.662;23.278;2022-11-27T06:46:42;39.03;;;16.58;;
19758;SDS011;10038;42.662;23.278;2022-11-27T06:49:08;35.22;;;15.85;;
19758;SDS011;10038;42.662;23.278;2022-11-27T06:51:35;38.03;;;16.92;;
19758;SDS011;10038;42.662;23.278;2022-11-27T06:54:01;33.47;;;17.52;;
19758;SDS011;10038;42.662;23.278;2022-11-27T06:56:29;52.10;;;26.60;;
19758;SDS011;10038;42.662;23.278;2022-11-27T06:58:56;46.70;;;19.60;;
19758;SDS011;10038;42.662;23.278;2022-11-27T07:01:26;49.42;;;20.13;;
19758;SDS011;10038;42.662;23.278;2022-11-27T07:03:54;47.20;;;23.17;;
19758;SDS011;10038;42.662;23.278;2022-11-27T07:06:22;39.35;;;18.17;;
19758;SDS011;10038;42.662;23.278;2022-11-27T07:08:49;40.22;;;20.75;;
19758;SDS011;10038;42.662;23.278;2022-11-27T07:11:16;32.22;;;16.17;;
19758;SDS011;10038;42.662;23.278;2022-11-27T07:13:43;34.63;;;17.15;;
19758;SDS011;10038;42.662;23.278;2022-11-27T07:16:10;39.72;;;18.45;;
19758;SDS011;10038;42.662;23.278;2022-11-27T07:18:38;40.55;;;20.25;;
19758;SDS011;10038;42.662;23.278;2022-11-27T07:21:06;42.05;;;18.95;;
19758;SDS011;10038;42.662;23.278;2022-11-27T07:23:33;41.90;;;19.63;;
19758;SDS011;10038;42.662;23.278;2022-11-27T07:26:03;54.10;;;25.08;;
19758;SDS011;10038;42.662;23.278;2022-11-27T07:28:30;44.83;;;21.80;;
19758;SDS011;10038;42.662;23.278;2022-11-27T07:30:56;43.67;;;19.65;;
19758;SDS011;10038;42.662;23.278;2022-11-27T07:33:23;45.55;;;22.70;;
19758;SDS011;10038;42.662;23.278;2022-11-27T07:35:56;55.22;;;21.83;;
19758;SDS011;10038;42.662;23.278;2022-11-27T07:38:24;43.00;;;20.77;;
19758;SDS011;10038;42.662;23.278;2022-11-27T07:40:50;54.17;;;22.25;;
19758;SDS011;10038;42.662;23.278;2022-11-27T07:43:17;36.53;;;19.48;;
19758;SDS011;10038;42.662;23.278;2022-11-27T07:45:44;53.85;;;20.73;;
19758;SDS011;10038;42.662;23.278;2022-11-27T07:48:10;41.22;;;19.95;;
19758;SDS011;10038;42.662;23.278;2022-11-27T07:50:37;42.83;;;19.92;;
19758;SDS011;10038;42.662;23.278;2022-11-27T07:55:58;50.38;;;22.17;;
19758;SDS011;10038;42.662;23.278;2022-11-27T07:58:27;52.72;;;23.30;;
19758;SDS011;10038;42.662;23.278;2022-11-27T08:00:54;40.40;;;20.42;;
19758;SDS011;10038;42.662;23.278;2022-11-27T08:03:21;40.08;;;20.50;;
19758;SDS011;10038;42.662;23.278;2022-11-27T08:05:47;50.13;;;21.27;;
19758;SDS011;10038;42.662;23.278;2022-11-27T08:08:14;44.55;;;19.80;;
19758;SDS011;10038;42.662;23.278;2022-11-27T08:10:40;51.22;;;20.98;;
19758;SDS011;10038;42.662;23.278;2022-11-27T08:13:09;41.67;;;19.85;;
19758;SDS011;10038;42.662;23.278;2022-11-27T08:15:36;37.92;;;18.95;;
19758;SDS011;10038;42.662;23.278;2022-11-27T08:18:02;47.55;;;19.77;;
19758;SDS011;10038;42.662;23.278;2022-11-27T08:20:29;48.05;;;21.42;;
19758;SDS011;10038;42.662;23.278;2022-11-27T08:22:55;48.72;;;22.65;;
19758;SDS011;10038;42.662;23.278;2022-11-27T08:25:23;48.75;;;21.80;;
19758;SDS011;10038;42.662;23.278;2022-11-27T08:27:49;34.90;;;19.02;;
19758;SDS011;10038;42.662;23.278;2022-11-27T08:30:17;45.20;;;21.85;;
19758;SDS011;10038;42.662;23.278;2022-11-27T08:32:46;57.22;;;27.02;;
19758;SDS011;10038;42.662;23.278;2022-11-27T08:35:12;121.05;;;48.38;;
19758;SDS011;10038;42.662;23.278;2022-11-27T08:37:39;69.28;;;32.42;;
19758;SDS011;10038;42.662;23.278;2022-11-27T08:40:06;58.15;;;28.23;;
19758;SDS011;10038;42.662;23.278;2022-11-27T08:42:33;60.58;;;29.65;;
19758;SDS011;10038;42.662;23.278;2022-11-27T08:45:00;52.90;;;24.02;;
19758;SDS011;10038;42.662;23.278;2022-11-27T08:47:28;63.70;;;28.88;;
19758;SDS011;10038;42.662;23.278;2022-11-27T08:49:55;46.00;;;20.92;;
19758;SDS011;10038;42.662;23.278;2022-11-27T08:52:22;44.53;;;21.65;;
19758;SDS011;10038;42.662;23.278;2022-11-27T08:54:48;41.55;;;18.67;;
19758;SDS011;10038;42.662;23.278;2022-11-27T08:57:15;36.92;;;17.90;;
19758;SDS011;10038;42.662;23.278;2022-11-27T08:59:42;42.83;;;19.00;;
19758;SDS011;10038;42.662;23.278;2022-11-27T09:02:09;43.20;;;19.42;;
19758;SDS011;10038;42.662;23.278;2022-11-27T09:04:37;41.63;;;20.77;;
19758;SDS011;10038;42.662;23.278;2022-11-27T09:07:04;47.08;;;20.85;;
19758;SDS011;10038;42.662;23.278;2022-11-27T09:09:30;45.70;;;21.95;;
19758;SDS011;10038;42.662;23.278;2022-11-27T09:11:57;43.60;;;20.83;;
19758;SDS011;10038;42.662;23.278;2022-11-27T09:14:23;42.97;;;20.42;;
19758;SDS011;10038;42.662;23.278;2022-11-27T09:16:50;48.50;;;23.90;;
19758;SDS011;10038;42.662;23.278;2022-11-27T09:19:17;42.87;;;21.67;;
19758;SDS011;10038;42.662;23.278;2022-11-27T09:21:47;47.43;;;19.30;;
19758;SDS011;10038;42.662;23.278;2022-11-27T09:24:14;47.50;;;20.70;;
19758;SDS011;10038;42.662;23.278;2022-11-27T09:26:40;40.13;;;17.90;;
19758;SDS011;10038;42.662;23.278;2022-11-27T09:29:08;44.50;;;21.00;;
19758;SDS011;10038;42.662;23.278;2022-11-27T09:31:35;45.33;;;21.80;;
19758;SDS011;10038;42.662;23.278;2022-11-27T09:34:01;52.40;;;24.07;;
19758;SDS011;10038;42.662;23.278;2022-11-27T09:36:28;48.60;;;22.10;;
19758;SDS011;10038;42.662;23.278;2022-11-27T09:38:56;49.03;;;21.87;;
19758;SDS011;10038;42.662;23.278;2022-11-27T09:41:28;44.27;;;21.80;;
19758;SDS011;10038;42.662;23.278;2022-11-27T09:44:01;41.67;;;21.27;;
19758;SDS011;10038;42.662;23.278;2022-11-27T09:46:30;45.83;;;21.40;;
19758;SDS011;10038;42.662;23.278;2022-11-27T09:48:57;40.30;;;22.37;;
19758;SDS011;10038;42.662;23.278;2022-11-27T09:51:26;41.57;;;22.10;;
19758;SDS011;10038;42.662;23.278;2022-11-27T09:53:59;47.03;;;24.37;;
19758;SDS011;10038;42.662;23.278;2022-11-27T09:56:26;45.17;;;21.27;;
19758;SDS011;10038;42.662;23.278;2022-11-27T09:58:55;39.90;;;22.80;;
19758;SDS011;10038;42.662;23.278;2022-11-27T10:01:23;58.07;;;23.47;;
19758;SDS011;10038;42.662;23.278;2022-11-27T10:03:50;44.53;;;24.60;;
19758;SDS011;10038;42.662;23.278;2022-11-27T10:06:19;40.30;;;21.33;;
19758;SDS011;10038;42.662;23.278;2022-11-27T10:08:50;43.43;;;23.63;;
19758;SDS011;10038;42.662;23.278;2022-11-27T10:11:21;44.37;;;20.43;;
19758;SDS011;10038;42.662;23.278;2022-11-27T10:13:54;44.53;;;23.27;;
19758;SDS011;10038;42.662;23.278;2022-11-27T10:16:24;40.57;;;21.73;;
19758;SDS011;10038;42.662;23.278;2022-11-27T10:18:54;40.27;;;22.40;;
19758;SDS011;10038;42.662;23.278;2022-11-27T10:21:24;41.97;;;23.77;;
19758;SDS011;10038;42.662;23.278;2022-11-27T10:23:53;42.63;;;21.37;;
19758;SDS011;10038;42.662;23.278;2022-11-27T10:26:25;49.73;;;25.20;;
19758;SDS011;10038;42.662;23.278;2022-11-27T10:28:55;42.63;;;21.07;;
19758;SDS011;10038;42.662;23.278;2022-11-27T10:31:28;40.93;;;23.10;;
19758;SDS011;10038;42.662;23.278;2022-11-27T10:33:58;51.73;;;23.90;;
19758;SDS011;10038;42.662;23.278;2022-11-27T10:36:27;49.83;;;24.53;;
19758;SDS011;10038;42.662;23.278;2022-11-27T10:38:55;44.77;;;24.80;;
19758;SDS011;10038;42.662;23.278;2022-11-27T10:41:26;47.97;;;24.13;;
19758;SDS011;10038;42.662;23.278;2022-11-27T10:43:55;50.90;;;30.43;;
19758;SDS011;10038;42.662;23.278;2022-11-27T10:46:23;44.53;;;26.87;;
19758;SDS011;10038;42.662;23.278;2022-11-27T10:48:51;43.97;;;24.33;;
19758;SDS011;10038;42.662;23.278;2022-11-27T10:51:18;57.17;;;29.07;;
19758;SDS011;10038;42.662;23.278;2022-11-27T10:53:46;41.90;;;25.03;;
19758;SDS011;10038;42.662;23.278;2022-11-27T10:56:20;47.50;;;24.23;;
19758;SDS011;10038;42.662;23.278;2022-11-27T10:58:51;45.00;;;25.73;;
19758;SDS011;10038;42.662;23.278;2022-11-27T11:01:21;42.60;;;23.87;;
19758;SDS011;10038;42.662;23.278;2022-11-27T11:03:48;47.20;;;24.60;;
19758;SDS011;10038;42.662;23.278;2022-11-27T11:06:15;43.37;;;25.83;;
19758;SDS011;10038;42.662;23.278;2022-11-27T11:08:43;46.30;;;27.00;;
19758;SDS011;10038;42.662;23.278;2022-11-27T11:11:09;49.40;;;27.30;;
19758;SDS011;10038;42.662;23.278;2022-11-27T11:13:42;48.90;;;25.10;;
19758;SDS011;10038;42.662;23.278;2022-11-27T11:16:16;47.43;;;28.70;;
19758;SDS011;10038;42.662;23.278;2022-11-27T11:18:43;57.83;;;27.27;;
19758;SDS011;10038;42.662;23.278;2022-11-27T11:21:12;46.53;;;25.90;;
19758;SDS011;10038;42.662;23.278;2022-11-27T11:23:40;45.63;;;26.47;;
19758;SDS011;10038;42.662;23.278;2022-11-27T11:26:07;57.57;;;27.97;;
19758;SDS011;10038;42.662;23.278;2022-11-27T11:28:39;49.27;;;27.00;;
19758;SDS011;10038;42.662;23.278;2022-11-27T11:31:09;54.50;;;28.20;;
19758;SDS011;10038;42.662;23.278;2022-11-27T11:33:47;48.00;;;25.17;;
19758;SDS011;10038;42.662;23.278;2022-11-27T11:36:15;38.53;;;23.07;;
19758;SDS011;10038;42.662;23.278;2022-11-27T11:38:41;48.70;;;25.57;;
19758;SDS011;10038;42.662;23.278;2022-11-27T11:41:10;44.93;;;25.33;;
19758;SDS011;10038;42.662;23.278;2022-11-27T11:43:37;48.10;;;26.57;;
19758;SDS011;10038;42.662;23.278;2022-11-27T11:46:05;49.37;;;24.33;;
19758;SDS011;10038;42.662;23.278;2022-11-27T11:48:33;44.33;;;23.47;;
19758;SDS011;10038;42.662;23.278;2022-11-27T11:51:02;51.37;;;26.43;;
19758;SDS011;10038;42.662;23.278;2022-11-27T11:53:32;46.27;;;23.10;;
19758;SDS011;10038;42.662;23.278;2022-11-27T11:56:01;42.70;;;23.43;;
19758;SDS011;10038;42.662;23.278;2022-11-27T11:58:34;38.90;;;23.60;;
19758;SDS011;10038;42.662;23.278;2022-11-27T12:01:08;48.07;;;23.40;;
19758;SDS011;10038;42.662;23.278;2022-11-27T12:03:40;37.87;;;19.07;;
19758;SDS011;10038;42.662;23.278;2022-11-27T12:06:15;36.47;;;21.03;;
19758;SDS011;10038;42.662;23.278;2022-11-27T12:08:47;38.90;;;23.83;;
19758;SDS011;10038;42.662;23.278;2022-11-27T12:11:17;25.00;;;14.73;;
19758;SDS011;10038;42.662;23.278;2022-11-27T12:13:51;20.67;;;11.93;;
19758;SDS011;10038;42.662;23.278;2022-11-27T12:16:20;21.03;;;12.23;;
19758;SDS011;10038;42.662;23.278;2022-11-27T12:18:54;19.23;;;11.77;;
19758;SDS011;10038;42.662;23.278;2022-11-27T12:21:24;20.67;;;11.60;;
19758;SDS011;10038;42.662;23.278;2022-11-27T12:24:00;18.07;;;10.37;;
19758;SDS011;10038;42.662;23.278;2022-11-27T12:26:31;23.30;;;12.83;;
19758;SDS011;10038;42.662;23.278;2022-11-27T12:31:50;23.43;;;12.67;;
19758;SDS011;10038;42.662;23.278;2022-11-27T12:34:22;24.90;;;11.67;;
19758;SDS011;10038;42.662;23.278;2022-11-27T12:36:57;15.60;;;9.00;;
19758;SDS011;10038;42.662;23.278;2022-11-27T12:39:27;15.07;;;10.00;;
19758;SDS011;10038;42.662;23.278;2022-11-27T12:42:00;19.87;;;9.90;;
19758;SDS011;10038;42.662;23.278;2022-11-27T12:44:35;13.67;;;8.83;;
19758;SDS011;10038;42.662;23.278;2022-11-27T12:47:05;19.70;;;10.30;;
19758;SDS011;10038;42.662;23.278;2022-11-27T12:49:33;18.20;;;10.07;;
19758;SDS011;10038;42.662;23.278;2022-11-27T12:52:05;14.53;;;8.40;;
19758;SDS011;10038;42.662;23.278;2022-11-27T12:54:35;20.13;;;10.00;;
19758;SDS011;10038;42.662;23.278;2022-11-27T12:57:07;21.13;;;9.43;;
19758;SDS011;10038;42.662;23.278;2022-11-27T12:59:37;17.97;;;11.10;;
19758;SDS011;10038;42.662;23.278;2022-11-27T13:02:11;15.07;;;8.37;;
19758;SDS011;10038;42.662;23.278;2022-11-27T13:04:43;17.33;;;9.10;;
19758;SDS011;10038;42.662;23.278;2022-11-27T13:07:14;19.97;;;9.07;;
19758;SDS011;10038;42.662;23.278;2022-11-27T13:09:44;20.10;;;9.00;;
19758;SDS011;10038;42.662;23.278;2022-11-27T13:12:19;16.77;;;9.10;;
19758;SDS011;10038;42.662;23.278;2022-11-27T13:14:48;19.60;;;11.00;;
19758;SDS011;10038;42.662;23.278;2022-11-27T13:17:17;17.43;;;8.50;;
19758;SDS011;10038;42.662;23.278;2022-11-27T13:19:44;21.73;;;11.20;;
19758;SDS011;10038;42.662;23.278;2022-11-27T13:22:14;14.33;;;9.70;;
19758;SDS011;10038;42.662;23.278;2022-11-27T13:24:43;20.57;;;10.53;;
19758;SDS011;10038;42.662;23.278;2022-11-27T13:27:12;18.30;;;11.90;;
19758;SDS011;10038;42.662;23.278;2022-11-27T13:29:41;24.50;;;10.43;;
19758;SDS011;10038;42.662;23.278;2022-11-27T13:32:12;19.27;;;11.87;;
19758;SDS011;10038;42.662;23.278;2022-11-27T13:34:44;19.10;;;10.50;;
19758;SDS011;10038;42.662;23.278;2022-11-27T13:37:25;13.53;;;9.27;;
19758;SDS011;10038;42.662;23.278;2022-11-27T13:39:57;18.20;;;10.90;;
19758;SDS011;10038;42.662;23.278;2022-11-27T13:42:24;19.80;;;10.17;;
19758;SDS011;10038;42.662;23.278;2022-11-27T13:44:53;19.90;;;10.40;;
19758;SDS011;10038;42.662;23.278;2022-11-27T13:47:21;16.70;;;9.73;;
19758;SDS011;10038;42.662;23.278;2022-11-27T13:49:56;21.90;;;10.80;;
19758;SDS011;10038;42.662;23.278;2022-11-27T13:52:25;19.40;;;10.83;;
19758;SDS011;10038;42.662;23.278;2022-11-27T13:54:52;21.63;;;9.77;;
19758;SDS011;10038;42.662;23.278;2022-11-27T13:57:19;14.10;;;7.97;;
19758;SDS011;10038;42.662;23.278;2022-11-27T13:59:56;16.30;;;8.37;;
19758;SDS011;10038;42.662;23.278;2022-11-27T14:02:23;16.07;;;9.70;;
19758;SDS011;10038;42.662;23.278;2022-11-27T14:04:51;16.35;;;9.00;;
19758;SDS011;10038;42.662;23.278;2022-11-27T14:07:17;17.20;;;8.98;;
19758;SDS011;10038;42.662;23.278;2022-11-27T14:09:46;19.60;;;9.80;;
19758;SDS011;10038;42.662;23.278;2022-11-27T14:12:18;20.53;;;8.53;;
19758;SDS011;10038;42.662;23.278;2022-11-27T14:14:55;17.33;;;8.55;;
19758;SDS011;10038;42.662;23.278;2022-11-27T14:17:25;15.27;;;8.70;;
19758;SDS011;10038;42.662;23.278;2022-11-27T14:19:59;14.50;;;9.10;;